Versailles, IN

2:02 AM EDT on September 24, 2014 (GMT -0400)
KINDILLS2 | Change Station
CLOSE
Current Station
Personal Weather Station
Location: Dillsboro, IN
Elevation: 840 ft
Nearby Weather Stations

Elev 840 ft 39.00 °N, 85.02 °W | Updated 1 second ago

Clear
Clear
50.7 °F
Feels Like 50.7 °F
N
0.0
Wind Variable Wind from ENE
Gusts 0.0 mph

Today
High -- | Low -- °F
--% Chance of Precip.
Yesterday
High -- | Low -- °F
Precip. -- in
7:30 AM 7:34 PM
Waning Crescent, 0% visible
Pressure 30.30 in
Visibility 10.0 miles
Clouds Clear
Dew Point 47 °F
Humidity 88%
Rainfall 0.00 in
Snow Depth Not available.
UV 0 out of 12
Pollen 3.50 out of 12
Air Quality Not available.
Flu Activity Not available.
METAR KCVG 240552Z 09004KT 10SM CLR 13/06 A3032 RMK AO2 SLP261 T01280056 10200 20128 51004

More Conditions Fewer Conditions

Pressure 30.30 in
Visibility 10.0 miles
Clouds Clear
Dew Point 47 °F
Humidity 88%
Rainfall 0.00 in
Snow Depth Not available.
UV 0 out of 12
Pollen 3.50 out of 12
Air Quality Not available.
Flu Activity Not available.
METAR KCVG 240552Z 09004KT 10SM CLR 13/06 A3032 RMK AO2 SLP261 T01280056 10200 20128 51004

More Conditions Fewer Conditions

10-Day Weather Forecast

Almanac

Astronomy

Sep. 24, 2014 Rise Set
Actual Time 7:30 AM EDT 7:34 PM EDT
Civil Twilight 7:03 AM EDT 8:01 PM EDT
Nautical Twilight 6:32 AM EDT 8:32 PM EDT
Astronomical Twilight 6:01 AM EDT 9:04 PM EDT
Moon 7:50 AM EDT 7:45 PM EDT
Length of Visible Light 12h 57m
Length of Day
12h 04m
Tomorrow will be 2m 32s shorter.
Waning Crescent, 0% of the Moon is Illuminated
Today
Waning Crescent
Sep 24
New
Oct 1
First Quarter
Oct 8
Full
Oct 15
Last Quarter

Today's Extremes

State Highs State Lows

Community

WunderPhotos

Upload Photos

1,755,891 photos uploaded!

WunderBlogs® & News

Nearby

Snow Depth

Station Depth Elevation
No new snow has been reported.

Earthquake Activity

City Distance Mag. Time & Date
No recent earthquake activity has been reported nearby.
Minimum magnitude displayed is 2.5.

Coastal Water Temperatures

Place Temperature
No Stations Reporting

Nearby Weather Stations